Time,TemperatureF,DewpointF,PressureIn,WindDirection,WindDirectionDegrees,WindSpeedMPH,WindSpeedGustMPH,Humidity,HourlyPrecipIn,Conditions,Clouds,dailyrainin,SoftwareType,DateUTC
2013-07-22 00:01:00,69.8,64.4,29.80,SSW,203,1.1,2.7,83,0.00,,,0.00,WUHU216HW,2013-07-22 05:01:00,
2013-07-22 00:06:00,69.7,64.3,29.80,East,90,0.9,1.6,83,0.00,,,0.00,WUHU216HW,2013-07-22 05:06:00,
2013-07-22 00:11:00,69.7,64.3,29.80,ESE,113,2.5,2.5,83,0.00,,,0.00,WUHU216HW,2013-07-22 05:11:00,
2013-07-22 00:16:00,69.7,64.3,29.80,South,180,0.7,2.5,83,0.00,,,0.00,WUHU216HW,2013-07-22 05:16:00,
2013-07-22 00:21:00,69.7,64.3,29.80,ENE,68,1.6,2.9,83,0.00,,,0.00,WUHU216HW,2013-07-22 05:21:00,
2013-07-22 00:26:00,69.8,64.4,29.79,SE,135,1.6,4.3,83,0.00,,,0.00,WUHU216HW,2013-07-22 05:26:00,
2013-07-22 00:31:00,69.8,64.4,29.79,ESE,113,1.3,4.3,83,0.00,,,0.00,WUHU216HW,2013-07-22 05:31:00,
2013-07-22 00:36:00,69.8,64.7,29.79,ESE,113,1.8,2.7,84,0.00,,,0.00,WUHU216HW,2013-07-22 05:36:00,
2013-07-22 00:41:00,69.8,64.4,29.80,South,180,1.3,2.7,83,0.00,,,0.00,WUHU216HW,2013-07-22 05:41:00,
2013-07-22 00:46:00,69.5,63.7,29.80,SE,135,0.2,2.7,82,0.00,,,0.00,WUHU216HW,2013-07-22 05:46:00,
2013-07-22 00:51:00,69.5,64.4,29.80,ESE,113,0.9,2.0,84,0.00,,,0.00,WUHU216HW,2013-07-22 05:51:00,
2013-07-22 00:56:00,69.5,64.1,29.80,SE,135,0.7,2.0,83,0.00,,,0.00,WUHU216HW,2013-07-22 05:56:00,
2013-07-22 01:01:00,69.5,64.1,29.79,ENE,68,1.1,2.2,83,0.00,,,0.00,WUHU216HW,2013-07-22 06:01:00,
2013-07-22 01:06:00,69.3,63.9,29.79,ENE,68,0.2,2.2,83,0.00,,,0.00,WUHU216HW,2013-07-22 06:06:00,
2013-07-22 01:11:00,69.3,63.9,29.79,SSE,158,2.2,2.2,83,0.00,,,0.00,WUHU216HW,2013-07-22 06:11:00,
2013-07-22 01:16:00,69.1,63.7,29.78,SSW,203,0.9,3.6,83,0.00,,,0.00,WUHU216HW,2013-07-22 06:16:00,
2013-07-22 01:21:00,69.1,64.1,29.78,ESE,113,1.8,3.6,84,0.00,,,0.00,WUHU216HW,2013-07-22 06:21:00,
2013-07-22 01:26:00,68.9,63.9,29.78,SE,135,1.6,3.6,84,0.00,,,0.00,WUHU216HW,2013-07-22 06:26:00,
2013-07-22 01:31:00,68.9,63.9,29.78,WSW,248,0.4,2.9,84,0.00,,,0.00,WUHU216HW,2013-07-22 06:31:00,
2013-07-22 01:36:00,68.9,63.5,29.78,NW,315,0.4,2.9,83,0.00,,,0.00,WUHU216HW,2013-07-22 06:36:00,
2013-07-22 01:41:00,68.8,63.7,29.78,East,90,0.2,1.8,84,0.00,,,0.00,WUHU216HW,2013-07-22 06:41:00,
2013-07-22 01:46:00,68.8,63.7,29.78,SE,135,1.6,2.0,84,0.00,,,0.00,WUHU216HW,2013-07-22 06:46:00,
2013-07-22 01:51:00,68.6,63.5,29.78,NNE,23,0.4,2.0,84,0.00,,,0.00,WUHU216HW,2013-07-22 06:51:00,
2013-07-22 01:56:00,68.6,63.5,29.78,NNE,23,0.2,1.6,84,0.00,,,0.00,WUHU216HW,2013-07-22 06:56:00,
2013-07-22 02:01:00,68.6,63.5,29.77,ESE,113,1.1,2.5,84,0.00,,,0.00,WUHU216HW,2013-07-22 07:01:00,
2013-07-22 02:06:00,68.6,63.5,29.77,NW,315,0.0,2.5,84,0.00,,,0.00,WUHU216HW,2013-07-22 07:06:00,
2013-07-22 02:11:00,68.4,63.4,29.77,NE,45,0.9,2.5,84,0.00,,,0.00,WUHU216HW,2013-07-22 07:11:00,
2013-07-22 02:16:00,68.4,64.0,29.77,WNW,293,2.0,2.5,86,0.00,,,0.00,WUHU216HW,2013-07-22 07:16:00,
2013-07-22 02:21:00,68.6,63.9,29.78,WSW,248,0.4,2.5,85,0.00,,,0.00,WUHU216HW,2013-07-22 07:21:00,
2013-07-22 02:26:00,68.6,63.9,29.78,WSW,248,0.4,2.2,85,0.00,,,0.00,WUHU216HW,2013-07-22 07:26:00,
2013-07-22 02:31:00,68.4,63.7,29.78,WNW,293,0.9,1.8,85,0.00,,,0.00,WUHU216HW,2013-07-22 07:31:00,
2013-07-22 02:36:00,68.0,63.0,29.77,NW,315,0.4,1.8,84,0.00,,,0.00,WUHU216HW,2013-07-22 07:36:00,
2013-07-22 02:41:00,68.0,63.4,29.77,West,270,1.3,2.5,85,0.00,,,0.00,WUHU216HW,2013-07-22 07:41:00,
2013-07-22 02:46:00,68.0,63.4,29.76,SE,135,1.1,2.5,85,0.00,,,0.00,WUHU216HW,2013-07-22 07:46:00,
2013-07-22 02:51:00,68.0,63.4,29.76,ESE,113,2.2,3.8,85,0.00,,,0.00,WUHU216HW,2013-07-22 07:51:00,
2013-07-22 02:56:00,68.0,63.4,29.76,East,90,0.4,3.8,85,0.00,,,0.00,WUHU216HW,2013-07-22 07:56:00,
2013-07-22 03:01:00,68.0,63.4,29.77,NNW,338,0.4,2.2,85,0.00,,,0.00,WUHU216HW,2013-07-22 08:01:00,
2013-07-22 03:06:00,68.0,63.4,29.76,WSW,248,0.4,1.8,85,0.00,,,0.00,WUHU216HW,2013-07-22 08:06:00,
2013-07-22 03:11:00,67.9,63.6,29.76,West,270,0.0,1.8,86,0.00,,,0.00,WUHU216HW,2013-07-22 08:11:00,
2013-07-22 03:16:00,67.7,63.4,29.76,SE,135,0.4,1.8,86,0.00,,,0.00,WUHU216HW,2013-07-22 08:16:00,
2013-07-22 03:21:00,67.5,63.2,29.76,SE,135,0.4,1.8,86,0.00,,,0.00,WUHU216HW,2013-07-22 08:21:00,
2013-07-22 03:26:00,67.3,63.0,29.76,North,0,0.4,1.6,86,0.00,,,0.00,WUHU216HW,2013-07-22 08:26:00,
2013-07-22 03:31:00,67.3,63.0,29.76,SSW,203,0.2,1.3,86,0.00,,,0.00,WUHU216HW,2013-07-22 08:31:00,
2013-07-22 03:36:00,67.1,63.1,29.75,NW,315,0.9,1.3,87,0.00,,,0.00,WUHU216HW,2013-07-22 08:36:00,
2013-07-22 03:41:00,67.1,63.1,29.75,WSW,248,1.1,1.1,87,0.00,,,0.00,WUHU216HW,2013-07-22 08:41:00,
2013-07-22 03:46:00,67.0,63.3,29.74,NNW,338,0.9,1.1,88,0.00,,,0.00,WUHU216HW,2013-07-22 08:46:00,
2013-07-22 03:51:00,67.0,63.3,29.74,WNW,293,0.9,2.2,88,0.00,,,0.00,WUHU216HW,2013-07-22 08:51:00,
2013-07-22 03:56:00,67.0,63.3,29.75,WNW,293,0.9,2.2,88,0.00,,,0.00,WUHU216HW,2013-07-22 08:56:00,
2013-07-22 04:01:00,67.0,63.3,29.76,West,270,0.4,2.2,88,0.00,,,0.00,WUHU216HW,2013-07-22 09:01:00,
2013-07-22 04:06:00,66.6,62.6,29.75,ESE,113,0.7,1.1,87,0.00,,,0.00,WUHU216HW,2013-07-22 09:06:00,
2013-07-22 04:11:00,66.6,62.9,29.75,NNW,338,0.4,1.3,88,0.00,,,0.00,WUHU216HW,2013-07-22 09:11:00,
2013-07-22 04:16:00,66.6,63.2,29.75,West,270,0.4,1.3,89,0.00,,,0.00,WUHU216HW,2013-07-22 09:16:00,
2013-07-22 04:21:00,66.6,63.2,29.74,WSW,248,1.1,1.6,89,0.00,,,0.00,WUHU216HW,2013-07-22 09:21:00,
2013-07-22 04:26:00,66.6,63.2,29.75,West,270,0.7,1.6,89,0.00,,,0.00,WUHU216HW,2013-07-22 09:26:00,
2013-07-22 04:31:00,66.6,63.5,29.75,West,270,0.4,1.6,90,0.00,,,0.00,WUHU216HW,2013-07-22 09:31:00,
2013-07-22 04:36:00,66.6,63.5,29.76,West,270,0.4,1.1,90,0.00,,,0.00,WUHU216HW,2013-07-22 09:36:00,
2013-07-22 04:41:00,66.6,63.5,29.76,WSW,248,0.4,1.1,90,0.00,,,0.00,WUHU216HW,2013-07-22 09:41:00,
2013-07-22 04:46:00,66.6,63.2,29.76,SW,225,0.9,1.1,89,0.00,,,0.00,WUHU216HW,2013-07-22 09:46:00,
2013-07-22 04:51:00,66.6,63.2,29.76,SW,225,0.2,0.9,89,0.00,,,0.00,WUHU216HW,2013-07-22 09:51:00,
2013-07-22 04:56:00,66.6,63.2,29.76,South,180,0.4,1.1,89,0.00,,,0.00,WUHU216HW,2013-07-22 09:56:00,
2013-07-22 05:01:00,66.6,63.2,29.76,West,270,0.4,1.1,89,0.00,,,0.00,WUHU216HW,2013-07-22 10:01:00,
2013-07-22 05:06:00,66.6,63.2,29.76,WSW,248,0.7,1.1,89,0.00,,,0.00,WUHU216HW,2013-07-22 10:06:00,
2013-07-22 05:11:00,66.4,62.7,29.76,SSW,203,0.0,0.7,88,0.00,,,0.00,WUHU216HW,2013-07-22 10:11:00,
2013-07-22 05:16:00,66.2,62.6,29.75,SE,135,0.0,0.7,88,0.00,,,0.00,WUHU216HW,2013-07-22 10:16:00,
2013-07-22 05:21:00,66.2,62.6,29.75,East,90,0.0,1.1,88,0.00,,,0.00,WUHU216HW,2013-07-22 10:21:00,
2013-07-22 05:26:00,66.4,63.0,29.74,SE,135,0.4,2.0,89,0.00,,,0.00,WUHU216HW,2013-07-22 10:26:00,
2013-07-22 05:31:00,66.6,63.2,29.74,SE,135,0.4,2.0,89,0.00,,,0.00,WUHU216HW,2013-07-22 10:31:00,
2013-07-22 05:36:00,66.6,63.2,29.74,ESE,113,0.4,1.8,89,0.00,,,0.00,WUHU216HW,2013-07-22 10:36:00,
2013-07-22 05:41:00,66.6,63.5,29.74,SSE,158,0.2,2.2,90,0.00,,,0.00,WUHU216HW,2013-07-22 10:41:00,
2013-07-22 05:46:00,66.6,63.5,29.74,WNW,293,1.1,2.2,90,0.00,,,0.00,WUHU216HW,2013-07-22 10:46:00,
2013-07-22 05:51:00,66.8,63.7,29.75,WNW,293,0.9,1.3,90,0.00,,,0.00,WUHU216HW,2013-07-22 10:51:00,
2013-07-22 05:56:00,67.0,63.9,29.74,ESE,113,0.4,1.3,90,0.00,,,0.00,WUHU216HW,2013-07-22 10:56:00,
2013-07-22 06:01:00,67.0,63.9,29.73,SSE,158,1.1,2.2,90,0.00,,,0.00,WUHU216HW,2013-07-22 11:01:00,
2013-07-22 06:06:00,67.0,63.9,29.73,ESE,113,1.1,2.2,90,0.00,,,0.00,WUHU216HW,2013-07-22 11:06:00,
2013-07-22 06:11:00,67.0,63.5,29.74,NE,45,0.4,2.5,89,0.00,,,0.00,WUHU216HW,2013-07-22 11:11:00,
2013-07-22 06:16:00,67.1,63.7,29.74,SSE,158,0.0,2.9,89,0.00,,,0.00,WUHU216HW,2013-07-22 11:16:00,
2013-07-22 06:21:00,67.1,63.7,29.74,SE,135,0.0,2.9,89,0.00,,,0.00,WUHU216HW,2013-07-22 11:21:00,
2013-07-22 06:26:00,67.1,63.7,29.74,WNW,293,0.4,2.5,89,0.00,,,0.00,WUHU216HW,2013-07-22 11:26:00,
2013-07-22 06:31:00,67.5,64.4,29.75,WSW,248,2.5,2.7,90,0.00,,,0.00,WUHU216HW,2013-07-22 11:31:00,
2013-07-22 06:36:00,67.5,64.4,29.75,SW,225,0.4,2.7,90,0.00,,,0.00,WUHU216HW,2013-07-22 11:36:00,
2013-07-22 06:41:00,67.5,64.1,29.75,SSW,203,0.0,2.2,89,0.00,,,0.00,WUHU216HW,2013-07-22 11:41:00,
2013-07-22 06:46:00,67.5,64.1,29.74,West,270,0.4,2.2,89,0.00,,,0.00,WUHU216HW,2013-07-22 11:46:00,
2013-07-22 06:51:00,67.9,64.8,29.74,West,270,1.1,1.8,90,0.00,,,0.00,WUHU216HW,2013-07-22 11:51:00,
2013-07-22 06:56:00,67.9,64.4,29.73,NE,45,0.7,1.8,89,0.00,,,0.00,WUHU216HW,2013-07-22 11:56:00,
2013-07-22 07:01:00,68.0,64.4,29.73,WNW,293,0.7,1.6,88,0.00,,,0.00,WUHU216HW,2013-07-22 12:01:00,
2013-07-22 07:06:00,68.0,64.6,29.73,SE,135,1.8,1.8,89,0.00,,,0.00,WUHU216HW,2013-07-22 12:06:00,
2013-07-22 07:11:00,68.2,64.5,29.72,SE,135,0.4,1.8,88,0.00,,,0.00,WUHU216HW,2013-07-22 12:11:00,
2013-07-22 07:16:00,68.4,64.7,29.72,ENE,68,0.9,2.0,88,0.00,,,0.00,WUHU216HW,2013-07-22 12:16:00,
2013-07-22 07:21:00,68.8,65.1,29.73,West,270,1.1,2.5,88,0.00,,,0.00,WUHU216HW,2013-07-22 12:21:00,
2013-07-22 07:26:00,69.1,65.4,29.73,WSW,248,1.1,2.5,88,0.00,,,0.00,WUHU216HW,2013-07-22 12:26:00,
2013-07-22 07:31:00,69.5,65.7,29.74,WSW,248,1.1,2.2,88,0.00,,,0.00,WUHU216HW,2013-07-22 12:31:00,
2013-07-22 07:36:00,69.8,66.1,29.74,WNW,293,0.4,2.5,88,0.00,,,0.00,WUHU216HW,2013-07-22 12:36:00,
2013-07-22 07:41:00,70.0,66.0,29.74,WSW,248,2.9,4.0,87,0.00,,,0.00,WUHU216HW,2013-07-22 12:41:00,
2013-07-22 07:46:00,70.2,66.2,29.74,NW,315,1.8,4.0,87,0.00,,,0.00,WUHU216HW,2013-07-22 12:46:00,
2013-07-22 07:51:00,70.2,66.2,29.74,NW,315,0.2,3.6,87,0.00,,,0.00,WUHU216HW,2013-07-22 12:51:00,
2013-07-22 07:56:00,70.2,66.2,29.73,ESE,113,0.9,3.6,87,0.00,,,0.00,WUHU216HW,2013-07-22 12:56:00,
2013-07-22 08:01:00,70.4,66.0,29.73,South,180,0.4,2.7,86,0.00,,,0.00,WUHU216HW,2013-07-22 13:01:00,
2013-07-22 08:06:00,70.7,66.3,29.73,WSW,248,0.9,3.1,86,0.00,,,0.00,WUHU216HW,2013-07-22 13:06:00,
2013-07-22 08:11:00,70.7,66.3,29.73,NNE,23,0.7,3.1,86,0.00,,,0.00,WUHU216HW,2013-07-22 13:11:00,
2013-07-22 08:16:00,70.9,66.5,29.73,West,270,2.7,3.4,86,0.00,,,0.00,WUHU216HW,2013-07-22 13:16:00,
2013-07-22 08:21:00,71.1,66.7,29.73,WSW,248,2.5,3.4,86,0.00,,,0.00,WUHU216HW,2013-07-22 13:21:00,
2013-07-22 08:26:00,71.5,66.7,29.73,West,270,2.5,4.0,85,0.00,,,0.00,WUHU216HW,2013-07-22 13:26:00,
2013-07-22 08:31:00,71.3,66.5,29.72,WNW,293,2.5,4.0,85,0.00,,,0.00,WUHU216HW,2013-07-22 13:31:00,
2013-07-22 08:36:00,71.5,67.1,29.72,WSW,248,1.3,3.1,86,0.00,,,0.00,WUHU216HW,2013-07-22 13:36:00,
2013-07-22 08:41:00,71.6,66.9,29.72,NW,315,1.8,2.9,85,0.00,,,0.00,WUHU216HW,2013-07-22 13:41:00,
2013-07-22 08:46:00,72.0,67.2,29.71,WSW,248,0.4,2.9,85,0.00,,,0.00,WUHU216HW,2013-07-22 13:46:00,
2013-07-22 08:51:00,72.4,67.2,29.72,NW,315,2.7,2.9,84,0.00,,,0.00,WUHU216HW,2013-07-22 13:51:00,
2013-07-22 08:56:00,72.7,67.6,29.72,WSW,248,2.5,3.4,84,0.00,,,0.00,WUHU216HW,2013-07-22 13:56:00,
2013-07-22 09:01:00,72.7,67.6,29.72,WSW,248,1.6,4.5,84,0.00,,,0.00,WUHU216HW,2013-07-22 14:01:00,
2013-07-22 09:06:00,72.9,68.1,29.71,West,270,3.6,4.5,85,0.00,,,0.00,WUHU216HW,2013-07-22 14:06:00,
2013-07-22 09:11:00,73.4,68.3,29.71,SE,135,2.5,3.6,84,0.00,,,0.00,WUHU216HW,2013-07-22 14:11:00,
2013-07-22 09:16:00,73.8,68.3,29.71,West,270,1.1,3.6,83,0.00,,,0.00,WUHU216HW,2013-07-22 14:16:00,
2013-07-22 09:21:00,74.2,68.7,29.71,WSW,248,2.2,4.5,83,0.00,,,0.00,WUHU216HW,2013-07-22 14:21:00,
2013-07-22 09:26:00,74.3,68.9,29.71,West,270,2.5,4.5,83,0.00,,,0.00,WUHU216HW,2013-07-22 14:26:00,
2013-07-22 09:31:00,74.9,69.4,29.71,West,270,1.1,4.7,83,0.00,,,0.00,WUHU216HW,2013-07-22 14:31:00,
2013-07-22 09:36:00,75.2,69.5,29.71,WNW,293,1.3,4.7,82,0.00,,,0.00,WUHU216HW,2013-07-22 14:36:00,
2013-07-22 09:41:00,75.6,69.4,29.71,WNW,293,3.8,5.1,81,0.00,,,0.00,WUHU216HW,2013-07-22 14:41:00,
2013-07-22 09:46:00,75.6,69.4,29.71,West,270,1.8,5.1,81,0.00,,,0.00,WUHU216HW,2013-07-22 14:46:00,
2013-07-22 09:51:00,76.0,69.8,29.71,WSW,248,3.4,3.6,81,0.00,,,0.00,WUHU216HW,2013-07-22 14:51:00,
2013-07-22 09:56:00,76.1,69.9,29.70,NNW,338,2.0,4.0,81,0.00,,,0.00,WUHU216HW,2013-07-22 14:56:00,
2013-07-22 10:01:00,76.5,69.9,29.70,West,270,2.5,4.0,80,0.00,,,0.00,WUHU216HW,2013-07-22 15:01:00,
2013-07-22 10:06:00,76.7,70.4,29.69,WSW,248,2.5,3.4,81,0.00,,,0.00,WUHU216HW,2013-07-22 15:06:00,
2013-07-22 10:11:00,76.9,70.2,29.70,WSW,248,2.9,3.8,80,0.00,,,0.00,WUHU216HW,2013-07-22 15:11:00,
2013-07-22 10:16:00,77.2,70.2,29.70,ESE,113,5.1,5.1,79,0.00,,,0.00,WUHU216HW,2013-07-22 15:16:00,
2013-07-22 10:21:00,77.4,70.4,29.70,NW,315,1.3,5.8,79,0.00,,,0.00,WUHU216HW,2013-07-22 15:21:00,
2013-07-22 10:26:00,78.1,71.1,29.70,West,270,1.6,5.8,79,0.00,,,0.00,WUHU216HW,2013-07-22 15:26:00,
2013-07-22 10:31:00,78.7,70.8,29.70,WSW,248,3.1,5.6,77,0.00,,,0.00,WUHU216HW,2013-07-22 15:31:00,
2013-07-22 10:36:00,79.0,71.2,29.70,SW,225,1.1,5.6,77,0.00,,,0.00,WUHU216HW,2013-07-22 15:36:00,
2013-07-22 10:41:00,79.6,70.9,29.70,WSW,248,4.5,4.5,75,0.00,,,0.00,WUHU216HW,2013-07-22 15:41:00,
2013-07-22 10:46:00,79.7,71.1,29.69,WSW,248,2.5,6.7,75,0.00,,,0.00,WUHU216HW,2013-07-22 15:46:00,
2013-07-22 10:51:00,79.9,71.3,29.70,WSW,248,1.3,6.7,75,0.00,,,0.00,WUHU216HW,2013-07-22 15:51:00,
2013-07-22 10:56:00,80.3,71.6,29.70,West,270,2.7,5.4,75,0.00,,,0.00,WUHU216HW,2013-07-22 15:56:00,
2013-07-22 11:01:00,80.3,71.3,29.70,WSW,248,3.6,5.4,74,0.00,,,0.00,WUHU216HW,2013-07-22 16:01:00,
2013-07-22 11:06:00,80.5,71.8,29.69,West,270,1.8,5.4,75,0.00,,,0.00,WUHU216HW,2013-07-22 16:06:00,
2013-07-22 11:11:00,80.8,71.4,29.70,WSW,248,2.5,4.3,73,0.00,,,0.00,WUHU216HW,2013-07-22 16:11:00,
2013-07-22 11:16:00,81.7,71.4,29.69,WSW,248,2.5,4.0,71,0.00,,,0.00,WUHU216HW,2013-07-22 16:16:00,
2013-07-22 11:21:00,82.4,72.1,29.69,West,270,4.9,4.9,71,0.00,,,0.00,WUHU216HW,2013-07-22 16:21:00,
2013-07-22 11:26:00,82.4,71.2,29.69,SSW,203,4.7,8.3,69,0.00,,,0.00,WUHU216HW,2013-07-22 16:26:00,
2013-07-22 11:31:00,82.6,70.5,29.70,WSW,248,2.9,8.3,67,0.00,,,0.00,WUHU216HW,2013-07-22 16:31:00,
2013-07-22 11:36:00,83.3,70.7,29.70,West,270,2.2,7.6,66,0.00,,,0.00,WUHU216HW,2013-07-22 16:36:00,
2013-07-22 11:41:00,83.0,69.9,29.70,WSW,248,5.4,7.4,65,0.00,,,0.00,WUHU216HW,2013-07-22 16:41:00,
2013-07-22 11:46:00,82.6,69.1,29.70,West,270,3.4,7.4,64,0.00,,,0.00,WUHU216HW,2013-07-22 16:46:00,
2013-07-22 11:51:00,82.6,70.9,29.70,West,270,3.4,6.9,68,0.00,,,0.00,WUHU216HW,2013-07-22 16:51:00,
2013-07-22 11:56:00,83.2,70.1,29.70,WSW,248,4.0,6.9,65,0.00,,,0.00,WUHU216HW,2013-07-22 16:56:00,
2013-07-22 12:01:00,82.6,69.6,29.71,SW,225,3.4,6.9,65,0.00,,,0.00,WUHU216HW,2013-07-22 17:01:00,
2013-07-22 12:06:00,82.8,70.7,29.71,SW,225,4.3,5.4,67,0.00,,,0.00,WUHU216HW,2013-07-22 17:06:00,
2013-07-22 12:11:00,83.9,70.8,29.70,WNW,293,4.0,5.4,65,0.00,,,0.00,WUHU216HW,2013-07-22 17:11:00,
2013-07-22 12:16:00,84.8,71.3,29.70,WSW,248,4.3,6.5,64,0.00,,,0.00,WUHU216HW,2013-07-22 17:16:00,
2013-07-22 12:21:00,84.6,70.2,29.71,SW,225,4.3,6.5,62,0.00,,,0.00,WUHU216HW,2013-07-22 17:21:00,
2013-07-22 12:26:00,84.1,69.7,29.70,WSW,248,6.3,6.5,62,0.00,,,0.00,WUHU216HW,2013-07-22 17:26:00,
2013-07-22 12:31:00,84.4,70.9,29.70,WSW,248,5.1,6.3,64,0.00,,,0.00,WUHU216HW,2013-07-22 17:31:00,
2013-07-22 12:36:00,85.3,71.3,29.70,WSW,248,4.0,7.2,63,0.00,,,0.00,WUHU216HW,2013-07-22 17:36:00,
2013-07-22 12:41:00,85.9,70.8,29.71,West,270,4.3,7.4,61,0.00,,,0.00,WUHU216HW,2013-07-22 17:41:00,
2013-07-22 12:46:00,84.8,70.8,29.71,NW,315,5.4,8.3,63,0.00,,,0.00,WUHU216HW,2013-07-22 17:46:00,
2013-07-22 12:51:00,84.6,70.2,29.71,SW,225,6.3,8.3,62,0.00,,,0.00,WUHU216HW,2013-07-22 17:51:00,
2013-07-22 12:56:00,84.8,70.4,29.71,West,270,5.8,7.4,62,0.00,,,0.00,WUHU216HW,2013-07-22 17:56:00,
2013-07-22 13:01:00,85.5,71.5,29.71,WSW,248,2.2,7.4,63,0.00,,,0.00,WUHU216HW,2013-07-22 18:01:00,
2013-07-22 13:06:00,85.9,71.4,29.70,West,270,2.2,5.6,62,0.00,,,0.00,WUHU216HW,2013-07-22 18:06:00,
2013-07-22 13:11:00,86.2,71.2,29.70,WNW,293,3.4,6.3,61,0.00,,,0.00,WUHU216HW,2013-07-22 18:11:00,
2013-07-22 13:16:00,86.0,70.6,29.70,WNW,293,3.4,6.3,60,0.00,,,0.00,WUHU216HW,2013-07-22 18:16:00,
2013-07-22 13:21:00,84.6,70.7,29.70,WSW,248,3.6,6.3,63,0.00,,,0.00,WUHU216HW,2013-07-22 18:21:00,
2013-07-22 13:26:00,84.2,70.3,29.70,West,270,4.3,6.3,63,0.00,,,0.00,WUHU216HW,2013-07-22 18:26:00,
2013-07-22 13:31:00,85.7,71.2,29.71,WSW,248,3.4,5.8,62,0.00,,,0.00,WUHU216HW,2013-07-22 18:31:00,
2013-07-22 13:36:00,86.0,72.0,29.71,WNW,293,3.4,5.1,63,0.00,,,0.00,WUHU216HW,2013-07-22 18:36:00,
2013-07-22 13:41:00,87.3,72.7,29.70,SW,225,3.1,4.5,62,0.00,,,0.00,WUHU216HW,2013-07-22 18:41:00,
2013-07-22 13:47:00,88.2,72.2,29.70,NW,315,3.8,5.6,59,0.00,,,0.00,WUHU216HW,2013-07-22 18:47:00,
2013-07-22 13:52:00,87.3,72.3,29.70,West,270,2.9,6.3,61,0.00,,,0.00,WUHU216HW,2013-07-22 18:52:00,
2013-07-22 13:57:00,87.5,72.5,29.70,NW,315,3.4,6.9,61,0.00,,,0.00,WUHU216HW,2013-07-22 18:57:00,
2013-07-22 14:02:00,88.0,72.6,29.70,WNW,293,4.3,6.9,60,0.00,,,0.00,WUHU216HW,2013-07-22 19:02:00,
2013-07-22 14:07:00,88.2,72.7,29.70,North,0,2.0,7.2,60,0.00,,,0.00,WUHU216HW,2013-07-22 19:07:00,
2013-07-22 14:12:00,89.3,72.5,29.69,NW,315,4.7,7.2,58,0.00,,,0.00,WUHU216HW,2013-07-22 19:12:00,
2013-07-22 14:17:00,89.6,71.8,29.70,WSW,248,6.0,6.0,56,0.00,,,0.00,WUHU216HW,2013-07-22 19:17:00,
2013-07-22 14:22:00,89.3,72.0,29.70,NE,45,4.7,6.0,57,0.00,,,0.00,WUHU216HW,2013-07-22 19:22:00,
2013-07-22 14:27:00,89.5,71.1,29.70,NW,315,4.3,6.3,55,0.00,,,0.00,WUHU216HW,2013-07-22 19:27:00,
2013-07-22 14:32:00,90.0,72.2,29.69,NW,315,4.0,6.3,56,0.00,,,0.00,WUHU216HW,2013-07-22 19:32:00,
2013-07-22 14:37:00,90.4,71.4,29.69,NW,315,2.9,6.3,54,0.00,,,0.00,WUHU216HW,2013-07-22 19:37:00,
2013-07-22 14:42:00,90.5,70.5,29.69,WNW,293,4.0,6.3,52,0.00,,,0.00,WUHU216HW,2013-07-22 19:42:00,
2013-07-22 14:47:00,90.4,71.4,29.69,West,270,1.8,6.5,54,0.00,,,0.00,WUHU216HW,2013-07-22 19:47:00,
2013-07-22 14:52:00,90.5,70.5,29.69,West,270,2.7,8.3,52,0.00,,,0.00,WUHU216HW,2013-07-22 19:52:00,
2013-07-22 14:57:00,89.8,70.9,29.70,NNW,338,2.9,8.3,54,0.00,,,0.00,WUHU216HW,2013-07-22 19:57:00,
2013-07-22 15:03:00,90.9,71.9,29.70,NE,45,2.5,6.9,54,0.00,,,0.00,WUHU216HW,2013-07-22 20:03:00,
2013-07-22 15:08:00,90.4,71.4,29.70,West,270,2.0,5.8,54,0.00,,,0.00,WUHU216HW,2013-07-22 20:08:00,
2013-07-22 15:13:00,90.9,71.9,29.70,NNW,338,1.8,8.5,54,0.00,,,0.00,WUHU216HW,2013-07-22 20:13:00,
2013-07-22 15:16:00,90.5,70.5,29.70,SW,225,2.9,8.5,52,0.00,,,0.00,WUHU216HW,2013-07-22 20:16:00,
2013-07-22 15:17:00,90.5,70.5,29.70,SW,225,2.9,8.5,52,0.00,,,0.00,WUHU216HW,2013-07-22 20:17:00,
2013-07-22 15:22:00,90.4,71.4,29.71,NNW,338,1.3,8.5,54,0.00,,,0.00,WUHU216HW,2013-07-22 20:22:00,
2013-07-22 15:27:00,91.6,72.0,29.71,WSW,248,2.9,4.0,53,0.00,,,0.00,WUHU216HW,2013-07-22 20:27:00,
2013-07-22 15:32:00,92.7,71.4,29.71,WNW,293,4.5,4.5,50,0.00,,,0.00,WUHU216HW,2013-07-22 20:32:00,
2013-07-22 15:37:00,92.2,69.6,29.71,NW,315,3.8,6.3,48,0.00,,,0.00,WUHU216HW,2013-07-22 20:37:00,
2013-07-22 15:42:00,90.7,69.0,29.71,SE,135,3.1,6.3,49,0.00,,,0.00,WUHU216HW,2013-07-22 20:42:00,
2013-07-22 15:43:00,90.7,69.6,29.71,SSE,158,2.0,6.3,50,0.00,,,0.00,WUHU216HW,2013-07-22 20:43:00,
2013-07-22 15:48:00,90.7,69.6,29.71,North,0,1.6,6.3,50,0.00,,,0.00,WUHU216HW,2013-07-22 20:48:00,
2013-07-22 15:53:00,90.7,69.6,29.71,West,270,1.6,5.4,50,0.00,,,0.00,WUHU216HW,2013-07-22 20:53:00,
2013-07-22 15:58:00,91.8,69.2,29.71,SSW,203,2.5,6.9,48,0.00,,,0.00,WUHU216HW,2013-07-22 20:58:00,
2013-07-22 16:03:00,91.8,68.6,29.71,SE,135,2.5,6.9,47,0.00,,,0.00,WUHU216HW,2013-07-22 21:03:00,
2013-07-22 16:08:00,92.0,68.8,29.70,NE,45,1.6,4.9,47,0.00,,,0.00,WUHU216HW,2013-07-22 21:08:00,
2013-07-22 16:13:00,91.6,68.4,29.70,ESE,113,1.8,6.3,47,0.00,,,0.00,WUHU216HW,2013-07-22 21:13:00,
2013-07-22 16:18:00,90.9,68.4,29.70,West,270,1.8,6.3,48,0.00,,,0.00,WUHU216HW,2013-07-22 21:18:00,
2013-07-22 16:23:00,90.5,67.4,29.70,WNW,293,1.3,6.5,47,0.00,,,0.00,WUHU216HW,2013-07-22 21:23:00,
2013-07-22 16:28:00,89.8,67.4,29.70,WSW,248,2.9,6.5,48,0.00,,,0.00,WUHU216HW,2013-07-22 21:28:00,
2013-07-22 16:33:00,90.2,67.8,29.70,SSE,158,2.5,5.4,48,0.00,,,0.00,WUHU216HW,2013-07-22 21:33:00,
2013-07-22 16:38:00,90.7,67.0,29.70,West,270,6.9,6.9,46,0.00,,,0.00,WUHU216HW,2013-07-22 21:38:00,
2013-07-22 16:43:00,90.4,66.6,29.70,ESE,113,2.7,6.9,46,0.00,,,0.00,WUHU216HW,2013-07-22 21:43:00,
2013-07-22 16:48:00,90.4,67.3,29.70,ENE,68,1.1,6.9,47,0.00,,,0.00,WUHU216HW,2013-07-22 21:48:00,
2013-07-22 16:53:00,89.8,66.2,29.70,NNE,23,2.2,7.6,46,0.00,,,0.00,WUHU216HW,2013-07-22 21:53:00,
2013-07-22 16:58:00,89.8,66.2,29.71,WNW,293,2.7,8.5,46,0.00,,,0.00,WUHU216HW,2013-07-22 21:58:00,
2013-07-22 17:03:00,89.5,65.8,29.71,WNW,293,4.3,8.5,46,0.00,,,0.00,WUHU216HW,2013-07-22 22:03:00,
2013-07-22 17:08:00,89.8,66.8,29.71,WSW,248,2.7,5.4,47,0.00,,,0.00,WUHU216HW,2013-07-22 22:08:00,
2013-07-22 17:13:00,90.0,66.3,29.72,WSW,248,1.8,4.0,46,0.00,,,0.00,WUHU216HW,2013-07-22 22:13:00,
2013-07-22 17:18:00,89.6,66.6,29.71,NNE,23,1.8,5.6,47,0.00,,,0.00,WUHU216HW,2013-07-22 22:18:00,
2013-07-22 17:23:00,89.3,66.3,29.71,West,270,1.3,5.6,47,0.00,,,0.00,WUHU216HW,2013-07-22 22:23:00,
2013-07-22 17:28:00,89.3,66.3,29.72,NW,315,3.6,5.1,47,0.00,,,0.00,WUHU216HW,2013-07-22 22:28:00,
2013-07-22 17:33:00,89.3,66.3,29.72,NE,45,2.2,5.4,47,0.00,,,0.00,WUHU216HW,2013-07-22 22:33:00,
2013-07-22 17:38:00,89.1,66.2,29.72,ENE,68,1.8,5.4,47,0.00,,,0.00,WUHU216HW,2013-07-22 22:38:00,
2013-07-22 17:43:00,88.6,65.1,29.72,NW,315,8.7,8.7,46,0.00,,,0.00,WUHU216HW,2013-07-22 22:43:00,
2013-07-22 17:48:00,88.0,65.9,29.72,ENE,68,1.3,8.7,48,0.00,,,0.00,WUHU216HW,2013-07-22 22:48:00,
2013-07-22 17:53:00,88.6,66.3,29.72,SSE,158,2.2,8.7,48,0.00,,,0.00,WUHU216HW,2013-07-22 22:53:00,
2013-07-22 17:58:00,88.2,65.3,29.72,SE,135,2.0,5.4,47,0.00,,,0.00,WUHU216HW,2013-07-22 22:58:00,
2013-07-22 18:03:00,87.7,64.9,29.72,WNW,293,6.9,6.9,47,0.00,,,0.00,WUHU216HW,2013-07-22 23:03:00,
2013-07-22 18:08:00,86.6,64.5,29.72,North,0,1.6,6.9,48,0.00,,,0.00,WUHU216HW,2013-07-22 23:08:00,
2013-07-22 18:13:00,86.8,64.1,29.72,SE,135,3.6,6.9,47,0.00,,,0.00,WUHU216HW,2013-07-22 23:13:00,
2013-07-22 18:18:00,86.9,64.3,29.72,SE,135,1.8,5.4,47,0.00,,,0.00,WUHU216HW,2013-07-22 23:18:00,
2013-07-22 18:23:00,87.1,63.8,29.72,West,270,3.8,4.3,46,0.00,,,0.00,WUHU216HW,2013-07-22 23:23:00,
2013-07-22 18:28:00,86.8,64.1,29.72,WSW,248,1.1,5.4,47,0.00,,,0.00,WUHU216HW,2013-07-22 23:28:00,
2013-07-22 18:33:00,86.2,63.6,29.72,WSW,248,3.4,7.2,47,0.00,,,0.00,WUHU216HW,2013-07-22 23:33:00,
2013-07-22 18:38:00,85.7,63.7,29.72,North,0,5.6,8.1,48,0.00,,,0.00,WUHU216HW,2013-07-22 23:38:00,
2013-07-22 18:43:00,85.3,64.1,29.73,NW,315,3.1,8.1,49,0.00,,,0.00,WUHU216HW,2013-07-22 23:43:00,
2013-07-22 18:48:00,85.1,64.5,29.73,WSW,248,2.5,6.0,50,0.00,,,0.00,WUHU216HW,2013-07-22 23:48:00,
2013-07-22 18:53:00,84.6,64.1,29.73,West,270,4.9,6.9,50,0.00,,,0.00,WUHU216HW,2013-07-22 23:53:00,
2013-07-22 18:58:00,84.2,63.1,29.74,NNE,23,3.4,6.9,49,0.00,,,0.00,WUHU216HW,2013-07-22 23:58:00,
2013-07-22 19:03:00,82.3,62.3,29.74,ESE,113,1.8,5.1,51,0.00,,,0.00,WUHU216HW,2013-07-23 00:03:00,
2013-07-22 19:08:00,80.8,62.6,29.74,WNW,293,1.8,5.1,54,0.00,,,0.00,WUHU216HW,2013-07-23 00:08:00,
2013-07-22 19:13:00,80.1,61.9,29.74,NW,315,1.8,5.4,54,0.00,,,0.00,WUHU216HW,2013-07-23 00:13:00,
2013-07-22 19:18:00,79.6,61.9,29.74,NW,315,1.8,5.4,55,0.00,,,0.00,WUHU216HW,2013-07-23 00:18:00,
2013-07-22 19:23:00,79.2,61.7,29.75,NE,45,1.1,6.3,55,0.00,,,0.00,WUHU216HW,2013-07-23 00:23:00,
2013-07-22 19:28:00,78.8,61.8,29.75,SSW,203,3.4,6.3,56,0.00,,,0.00,WUHU216HW,2013-07-23 00:28:00,
2013-07-22 19:33:00,78.5,61.5,29.75,NNE,23,1.6,4.9,56,0.00,,,0.00,WUHU216HW,2013-07-23 00:33:00,
2013-07-22 19:38:00,78.1,61.1,29.76,NNE,23,1.8,4.0,56,0.00,,,0.00,WUHU216HW,2013-07-23 00:38:00,
2013-07-22 19:43:00,77.9,61.5,29.76,SSE,158,1.8,3.6,57,0.00,,,0.00,WUHU216HW,2013-07-23 00:43:00,
2013-07-22 19:48:00,77.6,60.6,29.77,West,270,1.8,4.7,56,0.00,,,0.00,WUHU216HW,2013-07-23 00:48:00,
2013-07-22 19:53:00,76.9,60.4,29.77,North,0,2.2,4.7,57,0.00,,,0.00,WUHU216HW,2013-07-23 00:53:00,
2013-07-22 19:58:00,76.5,60.6,29.77,South,180,1.3,4.5,58,0.00,,,0.00,WUHU216HW,2013-07-23 00:58:00,
2013-07-22 20:03:00,76.1,60.3,29.78,WNW,293,0.4,3.6,58,0.00,,,0.00,WUHU216HW,2013-07-23 01:03:00,
2013-07-22 20:08:00,76.0,60.1,29.78,West,270,1.1,3.6,58,0.00,,,0.00,WUHU216HW,2013-07-23 01:08:00,
2013-07-22 20:13:00,75.8,59.9,29.78,NE,45,2.0,2.7,58,0.00,,,0.00,WUHU216HW,2013-07-23 01:13:00,
2013-07-22 20:18:00,75.4,59.7,29.78,NE,45,1.1,3.8,58,0.00,,,0.00,WUHU216HW,2013-07-23 01:18:00,
2013-07-22 20:23:00,75.1,59.8,29.78,ESE,113,0.9,3.8,59,0.00,,,0.00,WUHU216HW,2013-07-23 01:23:00,
2013-07-22 20:28:00,74.9,59.6,29.78,ESE,113,1.3,3.4,59,0.00,,,0.00,WUHU216HW,2013-07-23 01:28:00,
2013-07-22 20:33:00,74.5,59.2,29.78,WSW,248,1.6,3.1,59,0.00,,,0.00,WUHU216HW,2013-07-23 01:33:00,
2013-07-22 20:38:00,74.2,58.9,29.79,East,90,1.1,3.1,59,0.00,,,0.00,WUHU216HW,2013-07-23 01:38:00,
2013-07-22 20:43:00,73.8,59.0,29.78,NNE,23,0.7,4.5,60,0.00,,,0.00,WUHU216HW,2013-07-23 01:43:00,
2013-07-22 20:48:00,73.4,58.7,29.79,West,270,0.9,4.5,60,0.00,,,0.00,WUHU216HW,2013-07-23 01:48:00,
2013-07-22 20:53:00,73.1,58.8,29.79,ENE,68,0.7,3.4,61,0.00,,,0.00,WUHU216HW,2013-07-23 01:53:00,
2013-07-22 20:58:00,72.7,59.0,29.79,NW,315,1.1,2.5,62,0.00,,,0.00,WUHU216HW,2013-07-23 01:58:00,
2013-07-22 21:03:00,72.4,58.6,29.79,NNW,338,0.9,2.7,62,0.00,,,0.00,WUHU216HW,2013-07-23 02:03:00,
2013-07-22 21:08:00,72.2,58.4,29.79,WNW,293,1.8,3.4,62,0.00,,,0.00,WUHU216HW,2013-07-23 02:08:00,
2013-07-22 21:13:00,71.8,58.5,29.79,ESE,113,0.4,3.4,63,0.00,,,0.00,WUHU216HW,2013-07-23 02:13:00,
2013-07-22 21:18:00,71.6,58.3,29.79,SSW,203,1.3,3.1,63,0.00,,,0.00,WUHU216HW,2013-07-23 02:18:00,
2013-07-22 21:23:00,71.5,58.2,29.80,SW,225,1.3,3.4,63,0.00,,,0.00,WUHU216HW,2013-07-23 02:23:00,
2013-07-22 21:28:00,71.3,58.1,29.80,NW,315,2.5,3.4,63,0.00,,,0.00,WUHU216HW,2013-07-23 02:28:00,
2013-07-22 21:33:00,70.9,57.7,29.81,North,0,1.1,2.5,63,0.00,,,0.00,WUHU216HW,2013-07-23 02:33:00,
2013-07-22 21:38:00,70.7,57.5,29.81,ENE,68,0.4,2.5,63,0.00,,,0.00,WUHU216HW,2013-07-23 02:38:00,
2013-07-22 21:43:00,70.4,57.6,29.81,North,0,1.1,1.8,64,0.00,,,0.00,WUHU216HW,2013-07-23 02:43:00,
2013-07-22 21:48:00,70.0,57.2,29.82,East,90,1.1,1.3,64,0.00,,,0.00,WUHU216HW,2013-07-23 02:48:00,
2013-07-22 21:53:00,69.8,57.5,29.82,ENE,68,0.4,1.3,65,0.00,,,0.00,WUHU216HW,2013-07-23 02:53:00,
2013-07-22 21:58:00,69.7,57.3,29.82,WNW,293,1.1,1.8,65,0.00,,,0.00,WUHU216HW,2013-07-23 02:58:00,
2013-07-22 22:03:00,69.5,57.2,29.82,East,90,2.2,2.2,65,0.00,,,0.00,WUHU216HW,2013-07-23 03:03:00,
2013-07-22 22:08:00,69.3,57.0,29.82,South,180,0.7,2.2,65,0.00,,,0.00,WUHU216HW,2013-07-23 03:08:00,
2013-07-22 22:13:00,69.1,56.8,29.82,ENE,68,0.9,2.2,65,0.00,,,0.00,WUHU216HW,2013-07-23 03:13:00,
2013-07-22 22:18:00,68.9,57.1,29.82,NNW,338,0.4,1.1,66,0.00,,,0.00,WUHU216HW,2013-07-23 03:18:00,
2013-07-22 22:23:00,68.9,57.1,29.82,NNE,23,0.9,1.6,66,0.00,,,0.00,WUHU216HW,2013-07-23 03:23:00,
2013-07-22 22:28:00,68.8,56.9,29.83,WSW,248,0.9,1.6,66,0.00,,,0.00,WUHU216HW,2013-07-23 03:28:00,
2013-07-22 22:33:00,68.8,56.9,29.83,ENE,68,0.7,1.3,66,0.00,,,0.00,WUHU216HW,2013-07-23 03:33:00,
2013-07-22 22:38:00,68.8,56.9,29.83,NNW,338,0.2,1.3,66,0.00,,,0.00,WUHU216HW,2013-07-23 03:38:00,
2013-07-22 22:43:00,68.8,56.9,29.83,NW,315,0.4,1.1,66,0.00,,,0.00,WUHU216HW,2013-07-23 03:43:00,
2013-07-22 22:48:00,68.6,56.7,29.84,ENE,68,0.7,1.3,66,0.00,,,0.00,WUHU216HW,2013-07-23 03:48:00,
2013-07-22 22:53:00,68.4,56.6,29.84,SSW,203,0.2,1.3,66,0.00,,,0.00,WUHU216HW,2013-07-23 03:53:00,
2013-07-22 22:58:00,68.6,57.2,29.84,NW,315,0.4,0.9,67,0.00,,,0.00,WUHU216HW,2013-07-23 03:58:00,
2013-07-22 23:01:00,68.6,57.2,29.84,ESE,113,0.0,0.9,67,0.00,,,0.00,WUHU216HW,2013-07-23 04:01:00,
2013-07-22 23:06:00,68.4,57.0,29.84,NNE,23,0.4,1.1,67,0.00,,,0.00,WUHU216HW,2013-07-23 04:06:00,
2013-07-22 23:11:00,68.4,57.0,29.84,WNW,293,1.6,1.6,67,0.00,,,0.00,WUHU216HW,2013-07-23 04:11:00,
2013-07-22 23:16:00,68.4,57.0,29.84,WSW,248,1.1,1.8,67,0.00,,,0.00,WUHU216HW,2013-07-23 04:16:00,
2013-07-22 23:21:00,68.4,57.0,29.85,WSW,248,0.9,1.8,67,0.00,,,0.00,WUHU216HW,2013-07-23 04:21:00,
2013-07-22 23:26:00,68.2,56.8,29.85,West,270,0.7,1.8,67,0.00,,,0.00,WUHU216HW,2013-07-23 04:26:00,
2013-07-22 23:31:00,68.2,56.8,29.85,NNW,338,0.2,1.8,67,0.00,,,0.00,WUHU216HW,2013-07-23 04:31:00,
2013-07-22 23:36:00,68.0,56.7,29.85,NNW,338,0.2,1.1,67,0.00,,,0.00,WUHU216HW,2013-07-23 04:36:00,
2013-07-22 23:41:00,68.0,56.7,29.86,ENE,68,1.1,2.0,67,0.00,,,0.00,WUHU216HW,2013-07-23 04:41:00,
2013-07-22 23:46:00,68.0,57.1,29.86,NNW,338,0.4,2.0,68,0.00,,,0.00,WUHU216HW,2013-07-23 04:46:00,
2013-07-22 23:51:00,67.7,56.7,29.87,NNE,23,0.4,1.1,68,0.00,,,0.00,WUHU216HW,2013-07-23 04:51:00,
2013-07-22 23:56:00,67.5,56.6,29.87,North,0,0.9,1.1,68,0.00,,,0.00,WUHU216HW,2013-07-23 04:56:00,